TimePDT,TemperatureF,Dew PointF,Humidity,Sea Level PressureIn,VisibilityMPH,Wind Direction,Wind SpeedMPH,Gust SpeedMPH,PrecipitationIn,Events,Conditions,WindDirDegrees,DateUTC
12:56 AM,66.0,46.0,48,29.92,10.0,South,3.5,-,N/A,,Clear,170,2013-06-06 07:56:00
1:56 AM,63.0,46.9,56,29.92,10.0,South,3.5,-,N/A,,Clear,180,2013-06-06 08:56:00
2:56 AM,64.0,46.9,54,29.92,10.0,Calm,Calm,-,N/A,,Clear,0,2013-06-06 09:56:00
3:56 AM,60.1,48.0,64,29.93,10.0,Calm,Calm,-,N/A,,Clear,0,2013-06-06 10:56:00
4:56 AM,59.0,48.9,69,29.96,10.0,Calm,Calm,-,N/A,,Clear,0,2013-06-06 11:56:00
5:56 AM,61.0,48.9,64,29.96,10.0,East,5.8,-,N/A,,Clear,100,2013-06-06 12:56:00
6:56 AM,62.1,50.0,65,29.98,10.0,Calm,Calm,-,N/A,,Clear,0,2013-06-06 13:56:00
7:56 AM,64.0,50.0,60,29.98,10.0,ENE,5.8,-,N/A,,Clear,70,2013-06-06 14:56:00
8:56 AM,66.0,51.1,59,29.99,10.0,NNW,4.6,-,N/A,,Clear,330,2013-06-06 15:56:00
9:56 AM,71.1,51.1,49,29.98,10.0,Calm,Calm,-,N/A,,Clear,0,2013-06-06 16:56:00
10:56 AM,77.0,48.9,37,29.97,10.0,Variable,3.5,-,N/A,,Clear,0,2013-06-06 17:56:00
11:56 AM,80.1,51.1,36,29.95,10.0,Variable,5.8,-,N/A,,Clear,0,2013-06-06 18:56:00
12:56 PM,84.0,46.0,26,29.93,10.0,NE,4.6,-,N/A,,Clear,40,2013-06-06 19:56:00
1:56 PM,87.1,48.0,26,29.91,10.0,Variable,4.6,-,N/A,,Clear,0,2013-06-06 20:56:00
2:56 PM,88.0,46.0,23,29.88,10.0,Calm,Calm,-,N/A,,Clear,0,2013-06-06 21:56:00
3:56 PM,91.9,46.9,21,29.86,10.0,North,3.5,-,N/A,,Clear,350,2013-06-06 22:56:00
4:56 PM,89.1,51.1,27,29.86,10.0,North,9.2,-,N/A,,Clear,360,2013-06-06 23:56:00
5:56 PM,88.0,51.1,28,29.85,10.0,North,10.4,-,N/A,,Clear,350,2013-06-07 00:56:00
6:56 PM,87.1,50.0,28,29.84,10.0,NNE,9.2,-,N/A,,Clear,20,2013-06-07 01:56:00
7:56 PM,84.0,50.0,31,29.85,10.0,NE,3.5,-,N/A,,Clear,40,2013-06-07 02:56:00
8:56 PM,79.0,51.1,38,29.86,10.0,Calm,Calm,-,N/A,,Clear,0,2013-06-07 03:56:00
9:56 PM,75.0,52.0,44,29.87,10.0,South,4.6,-,N/A,,Clear,190,2013-06-07 04:56:00
10:56 PM,73.0,52.0,48,29.87,10.0,South,4.6,-,N/A,,Clear,170,2013-06-07 05:56:00
11:56 PM,71.1,51.1,49,29.87,10.0,Calm,Calm,-,N/A,,Clear,0,2013-06-07 06:56:00